Time;durP1;ratioP1;P1;durP2;ratioP2;P2;SDS_P1;SDS_P2;PMS_P1;PMS_P2;Temp;Humidity;BMP_temperature;BMP_pressure;BME280_temperature;BME280_humidity;BME280_pressure;Samples;Min_cycle;Max_cycle;Signal;HPM_P1;HPM_P2
2021/09/15 00:04:00;;;;;;;9.27;8.40;;;;;;;22.20;73.30;99836.88;10294432;28;22144;-63
2021/09/15 00:09:02;;;;;;;9.40;8.60;;;;;;;22.20;73.29;99849.59;10291590;28;20109;-61
2021/09/15 00:14:03;;;;;;;9.18;8.27;;;;;;;22.16;73.69;99841.06;10302402;28;20487;-61
2021/09/15 00:19:05;;;;;;;9.45;8.52;;;;;;;22.15;73.64;99852.94;10294749;28;20126;-63
2021/09/15 00:24:06;;;;;;;9.82;8.90;;;;;;;22.11;73.57;99850.84;10296401;28;20137;-61
2021/09/15 00:29:08;;;;;;;10.18;9.23;;;;;;;21.99;74.05;99829.81;10295081;28;20062;-61
2021/09/15 00:34:09;;;;;;;10.10;8.93;;;;;;;22.02;74.43;99833.97;10292077;28;20062;-60
2021/09/15 00:39:11;;;;;;;9.55;8.75;;;;;;;21.97;74.74;99836.47;10293651;28;20116;-61
2021/09/15 00:44:14;;;;;;;9.80;8.93;;;;;;;21.88;74.94;99816.88;10301585;28;20059;-62
2021/09/15 00:49:15;;;;;;;11.07;9.45;;;;;;;21.88;75.04;99817.69;10298709;28;20062;-62
2021/09/15 00:54:17;;;;;;;9.93;9.02;;;;;;;21.76;75.56;99802.28;10294333;28;20133;-61
2021/09/15 00:59:19;;;;;;;10.45;9.48;;;;;;;21.74;75.45;99805.22;10291499;28;20089;-62
2021/09/15 01:04:20;;;;;;;9.73;8.68;;;;;;;21.70;75.85;99793.94;10296340;28;20108;-60
2021/09/15 01:09:22;;;;;;;10.13;9.10;;;;;;;21.67;76.03;99796.25;10290772;28;20046;-61
2021/09/15 01:14:23;;;;;;;10.32;9.43;;;;;;;21.67;76.12;99798.94;10292451;28;20096;-61
2021/09/15 01:19:26;;;;;;;10.98;9.88;;;;;;;21.62;76.25;99796.00;10296350;28;20061;-60
2021/09/15 01:24:32;;;;;;;11.45;10.32;;;;;;;21.53;76.40;99790.81;10290324;28;20055;-61
2021/09/15 01:29:34;;;;;;;10.93;9.90;;;;;;;21.57;76.44;99799.34;10296871;28;20488;-62
2021/09/15 01:34:41;;;;;;;10.30;9.40;;;;;;;21.62;76.55;99802.28;10263293;28;20125;-62
2021/09/15 01:39:43;;;;;;;11.43;10.38;;;;;;;21.62;76.00;99790.59;10287805;28;20309;-61
2021/09/15 01:44:46;;;;;;;10.25;9.45;;;;;;;21.64;76.37;99793.94;10282596;28;20754;-61
2021/09/15 01:49:47;;;;;;;10.00;9.18;;;;;;;21.62;76.48;99785.19;10241517;28;20520;-62
2021/09/15 01:54:49;;;;;;;10.68;9.68;;;;;;;21.57;76.54;99776.84;10258685;28;20743;-61
2021/09/15 01:59:50;;;;;;;11.82;10.80;;;;;;;21.45;77.04;99773.91;10254790;28;20166;-61
2021/09/15 02:04:52;;;;;;;12.27;11.13;;;;;;;21.46;77.65;99776.41;10249410;28;20043;-61
2021/09/15 02:09:53;;;;;;;11.30;10.20;;;;;;;21.41;77.58;99762.66;10256485;28;20070;-61
2021/09/15 02:14:54;;;;;;;11.90;10.90;;;;;;;21.39;77.61;99770.13;10254078;28;20078;-61
2021/09/15 02:19:56;;;;;;;11.35;10.38;;;;;;;21.33;77.83;99765.53;10248580;28;20051;-64
2021/09/15 02:24:57;;;;;;;11.23;10.20;;;;;;;21.35;77.71;99763.50;10254628;28;20078;-62
2021/09/15 02:29:59;;;;;;;11.88;10.82;;;;;;;21.29;78.21;99759.72;10254800;28;20083;-61
2021/09/15 02:35:00;;;;;;;12.48;11.18;;;;;;;21.25;78.17;99753.03;10252476;28;20047;-62
2021/09/15 02:40:02;;;;;;;10.98;10.18;;;;;;;21.28;78.29;99758.03;10248578;28;20122;-61
2021/09/15 02:45:04;;;;;;;11.00;10.10;;;;;;;21.26;78.24;99760.13;10252344;28;20067;-61
2021/09/15 02:50:06;;;;;;;11.65;10.68;;;;;;;21.21;78.06;99757.19;10252233;28;21445;-61
2021/09/15 02:55:08;;;;;;;13.60;12.32;;;;;;;21.19;78.39;99749.28;10253972;28;20050;-62
2021/09/15 03:00:10;;;;;;;12.30;11.20;;;;;;;21.17;78.85;99750.53;10255625;28;20101;-62
2021/09/15 03:05:11;;;;;;;12.25;11.05;;;;;;;21.12;78.69;99745.75;10255297;28;20551;-62
2021/09/15 03:10:13;;;;;;;12.07;11.07;;;;;;;21.09;79.21;99748.88;10240789;28;20046;-61
2021/09/15 03:15:14;;;;;;;12.18;11.18;;;;;;;21.03;79.39;99738.84;10251033;28;20070;-61
2021/09/15 03:20:16;;;;;;;12.63;11.43;;;;;;;21.00;79.29;99752.78;10249911;28;20485;-61
2021/09/15 03:25:17;;;;;;;13.00;11.80;;;;;;;20.96;79.93;99756.94;10247193;28;20133;-62
2021/09/15 03:30:19;;;;;;;11.90;10.70;;;;;;;20.94;80.16;99746.34;10250936;28;20155;-61
2021/09/15 03:35:20;;;;;;;12.85;11.75;;;;;;;20.94;79.95;99746.34;10253428;28;20054;-61
2021/09/15 03:40:22;;;;;;;13.65;12.02;;;;;;;20.91;79.71;99741.34;10251964;28;20235;-60
2021/09/15 03:45:23;;;;;;;14.82;12.45;;;;;;;20.96;79.54;99751.53;10248281;28;20560;-61
2021/09/15 03:50:24;;;;;;;12.30;11.07;;;;;;;21.01;79.35;99740.94;10247682;28;20117;-61
2021/09/15 03:55:26;;;;;;;12.57;11.45;;;;;;;21.01;79.46;99735.50;10254962;28;20190;-60
2021/09/15 04:00:27;;;;;;;11.82;10.73;;;;;;;21.04;79.09;99734.28;10249967;28;20067;-61
2021/09/15 04:05:29;;;;;;;12.10;11.15;;;;;;;20.99;79.12;99721.38;10245616;28;20189;-61
2021/09/15 04:10:31;;;;;;;10.52;9.63;;;;;;;21.04;79.18;99718.88;10286374;28;20614;-61
2021/09/15 04:15:32;;;;;;;11.98;10.90;;;;;;;21.05;78.92;99723.25;10279146;28;20114;-61
2021/09/15 04:20:34;;;;;;;11.85;10.65;;;;;;;21.04;78.75;99729.69;10248439;28;20062;-61
2021/09/15 04:36:32;;;;;;;13.15;11.95;;;;;;;21.06;78.06;99722.19;10245513;28;20567;-61
2021/09/15 04:41:33;;;;;;;12.57;11.38;;;;;;;21.16;78.01;99724.50;10252206;28;20124;-61
2021/09/15 04:46:34;;;;;;;12.20;11.00;;;;;;;21.13;77.74;99723.03;10256987;28;20096;-61
2021/09/15 04:51:37;;;;;;;13.40;12.30;;;;;;;21.09;78.57;99724.53;10260285;28;20074;-63
2021/09/15 04:56:41;;;;;;;13.20;11.93;;;;;;;21.08;78.49;99736.38;10294039;28;20056;-61
2021/09/15 05:01:43;;;;;;;11.85;10.65;;;;;;;21.05;79.40;99719.69;10288906;28;20101;-61
2021/09/15 05:06:44;;;;;;;11.75;10.75;;;;;;;21.12;79.29;99732.22;10291175;28;20105;-62
2021/09/15 05:11:46;;;;;;;14.65;13.18;;;;;;;21.12;79.16;99723.25;10280493;28;20225;-61
2021/09/15 05:16:47;;;;;;;13.80;12.43;;;;;;;21.02;79.24;99729.06;10281080;28;20459;-62
2021/09/15 05:21:49;;;;;;;14.95;13.60;;;;;;;20.95;79.22;99736.34;10285755;28;20132;-62
2021/09/15 05:26:50;;;;;;;14.23;12.40;;;;;;;20.86;79.64;99742.97;10288839;28;20129;-62
2021/09/15 05:31:51;;;;;;;11.40;10.38;;;;;;;20.83;80.15;99738.78;10288889;28;20459;-62
2021/09/15 05:36:53;;;;;;;12.98;11.05;;;;;;;20.81;79.77;99733.59;10287897;28;20074;-62
2021/09/15 05:41:54;;;;;;;11.07;10.00;;;;;;;20.88;79.67;99730.88;10283085;28;20043;-62
2021/09/15 05:46:56;;;;;;;11.38;10.23;;;;;;;20.89;79.26;99734.44;10287355;28;20476;-61
2021/09/15 05:51:57;;;;;;;10.32;9.38;;;;;;;20.80;80.04;99731.91;10286560;28;20136;-63
2021/09/15 05:56:58;;;;;;;10.95;10.05;;;;;;;20.89;79.30;99742.56;10280367;28;20096;-62
2021/09/15 06:02:00;;;;;;;10.63;9.00;;;;;;;20.98;79.42;99754.88;10285257;28;20113;-61
2021/09/15 06:07:02;;;;;;;10.95;9.90;;;;;;;20.90;79.58;99753.19;10280091;28;20050;-61
2021/09/15 06:12:04;;;;;;;10.07;9.07;;;;;;;20.89;80.05;99754.22;10276151;28;20525;-58
2021/09/15 06:17:06;;;;;;;10.85;9.95;;;;;;;20.87;80.38;99763.56;10278470;28;20181;-58
2021/09/15 06:22:08;;;;;;;10.00;9.10;;;;;;;20.93;81.10;99760.88;10279174;28;20152;-59
2021/09/15 06:27:09;;;;;;;11.05;9.95;;;;;;;20.92;80.90;99772.72;10275089;28;20191;-58
2021/09/15 06:32:11;;;;;;;11.18;10.00;;;;;;;20.90;81.31;99771.28;10267665;28;20050;-58
2021/09/15 06:37:14;;;;;;;11.65;10.27;;;;;;;20.83;82.09;99768.53;10275893;28;20050;-61
2021/09/15 06:42:18;;;;;;;10.23;8.82;;;;;;;20.62;83.85;99774.88;10276529;28;20194;-61
2021/09/15 06:47:20;;;;;;;13.82;10.52;;;;;;;20.71;84.30;99773.69;10254481;28;20042;-61
2021/09/15 06:52:21;;;;;;;12.30;11.18;;;;;;;20.71;85.51;99772.88;10251797;28;20058;-62
2021/09/15 06:57:23;;;;;;;12.75;11.48;;;;;;;20.61;87.77;99771.34;10246868;28;20870;-61
2021/09/15 07:02:25;;;;;;;15.85;12.40;;;;;;;20.51;87.94;99783.53;10261997;28;20074;-61
2021/09/15 07:07:26;;;;;;;12.20;10.95;;;;;;;20.44;88.32;99768.13;10245049;28;20078;-65
2021/09/15 07:12:28;;;;;;;14.43;13.02;;;;;;;20.61;90.45;99775.91;10262967;28;20050;-61
2021/09/15 07:17:29;;;;;;;14.10;12.07;;;;;;;20.63;88.65;99785.50;10242107;28;20133;-62
2021/09/15 07:22:31;;;;;;;14.02;12.60;;;;;;;20.64;90.30;99778.19;10240090;28;20390;-61
2021/09/15 07:27:33;;;;;;;15.55;14.15;;;;;;;20.61;89.88;99797.53;10239478;28;20054;-62
2021/09/15 07:32:36;;;;;;;13.48;12.13;;;;;;;20.53;91.28;99803.13;10249293;28;20081;-61
2021/09/15 07:37:37;;;;;;;14.50;13.18;;;;;;;20.40;92.38;99795.75;10266973;28;20148;-62
2021/09/15 07:42:39;;;;;;;13.57;12.27;;;;;;;20.49;91.88;99795.41;10246624;28;20110;-61
2021/09/15 07:47:41;;;;;;;13.60;12.35;;;;;;;20.62;92.52;99799.22;10240155;28;20174;-61
2021/09/15 07:52:43;;;;;;;13.05;11.75;;;;;;;20.53;92.75;99808.53;10244642;28;20046;-61
2021/09/15 07:57:46;;;;;;;11.63;10.43;;;;;;;20.47;93.07;99799.34;10248077;28;20054;-61
2021/09/15 08:02:51;;;;;;;11.30;10.20;;;;;;;20.50;94.66;99804.34;10243196;28;20057;-61
2021/09/15 08:07:52;;;;;;;11.68;10.68;;;;;;;20.55;94.88;99806.44;10260794;28;20054;-61
2021/09/15 08:12:54;;;;;;;11.10;10.15;;;;;;;20.70;93.83;99812.59;10267792;28;20523;-61
2021/09/15 08:17:59;;;;;;;16.00;10.20;;;;;;;20.81;93.08;99806.63;10287400;28;20088;-63
2021/09/15 08:23:01;;;;;;;10.98;9.95;;;;;;;20.89;93.62;99810.19;10287308;28;20504;-61
2021/09/15 08:28:04;;;;;;;10.25;9.27;;;;;;;21.01;92.44;99816.69;10288256;28;20124;-60
2021/09/15 08:33:06;;;;;;;10.77;9.77;;;;;;;21.01;92.64;99813.97;10284218;28;20153;-61
2021/09/15 08:38:11;;;;;;;12.07;10.93;;;;;;;20.98;93.21;99827.91;10285970;28;20073;-61
2021/09/15 08:43:13;;;;;;;11.07;10.07;;;;;;;21.14;93.21;99822.13;10260561;28;20066;-61
2021/09/15 08:48:18;;;;;;;10.73;9.68;;;;;;;21.16;92.31;99811.94;10269606;28;20082;-60
2021/09/15 08:53:20;;;;;;;10.65;9.65;;;;;;;21.16;91.82;99825.47;10278342;28;20062;-58
2021/09/15 08:58:22;;;;;;;10.47;9.53;;;;;;;21.05;93.60;99823.38;10285401;28;20082;-57
2021/09/15 09:03:36;;;;;;;9.82;8.93;;;;;;;20.99;93.50;99813.34;10271331;28;20051;-57
2021/09/15 09:08:42;;;;;;;10.82;9.73;;;;;;;21.09;93.74;99813.81;10285871;28;20136;-61
2021/09/15 09:14:06;;;;;;;9.55;8.65;;;;;;;21.25;92.62;99818.00;10268489;28;20079;-62
2021/09/15 09:19:11;;;;;;;9.73;8.93;;;;;;;21.27;93.29;99809.69;10274962;28;20048;-61
2021/09/15 09:24:13;;;;;;;9.60;8.70;;;;;;;21.18;92.96;99811.72;10283811;28;20057;-61
2021/09/15 09:29:18;;;;;;;9.67;8.67;;;;;;;21.15;94.17;99810.28;10253453;28;20055;-61
2021/09/15 09:34:20;;;;;;;12.73;9.23;;;;;;;21.06;94.54;99807.94;10263785;28;20719;-61
2021/09/15 09:39:33;;;;;;;10.18;9.23;;;;;;;21.39;93.51;99802.63;10242814;28;20706;-61
2021/09/15 09:44:34;;;;;;;10.48;9.45;;;;;;;21.46;92.91;99803.47;10251434;28;20137;-62
2021/09/15 09:50:09;;;;;;;9.15;8.25;;;;;;;21.69;92.01;99799.56;10253883;28;21996;-62
2021/09/15 09:55:11;;;;;;;9.98;9.13;;;;;;;21.72;91.46;99791.03;10249886;28;20129;-61
2021/09/15 10:00:13;;;;;;;9.75;8.88;;;;;;;21.93;91.06;99792.69;10243861;28;21379;-61
2021/09/15 10:05:16;;;;;;;8.63;7.90;;;;;;;21.87;90.37;99791.66;10276046;28;20133;-62
2021/09/15 10:10:19;;;;;;;;;;;;;;;21.58;91.49;99790.19;10275597;28;20146;-61
2021/09/15 10:15:21;;;;;;;9.07;8.20;;;;;;;21.57;91.55;99782.28;10282736;28;20012;-61
2021/09/15 10:20:30;;;;;;;9.23;8.32;;;;;;;21.59;91.80;99789.16;10282405;28;20058;-60
2021/09/15 10:25:37;;;;;;;9.00;8.20;;;;;;;21.58;91.37;99783.94;10280092;28;20197;-62
2021/09/15 10:30:41;;;;;;;8.15;7.45;;;;;;;21.60;91.39;99779.16;10282509;28;20150;-62
2021/09/15 10:35:46;;;;;;;9.05;7.80;;;;;;;21.74;91.57;99783.53;10299863;28;20054;-62
2021/09/15 10:40:47;;;;;;;6.82;6.22;;;;;;;21.80;89.23;99785.41;10291028;28;20054;-61
2021/09/15 10:46:17;;;;;;;7.50;6.13;;;;;;;21.86;88.31;99771.03;10260164;28;20138;-62
2021/09/15 10:51:19;;;;;;;6.00;5.43;;;;;;;21.99;87.57;99777.47;10257743;28;20093;-62
2021/09/15 10:56:35;;;;;;;6.15;5.00;;;;;;;21.93;87.24;99768.31;10241142;28;20198;-61
2021/09/15 11:01:41;;;;;;;5.82;5.05;;;;;;;21.81;86.62;99772.69;10241757;28;20055;-60
2021/09/15 11:06:43;;;;;;;5.63;5.13;;;;;;;21.73;88.22;99771.03;10252090;28;20089;-61
2021/09/15 11:11:49;;;;;;;5.32;4.82;;;;;;;21.82;87.78;99774.38;10265014;28;20113;-62
2021/09/15 11:16:52;;;;;;;5.72;4.72;;;;;;;21.85;86.29;99763.13;10279457;28;20051;-62
2021/09/15 11:21:56;;;;;;;;;;;;;;;21.98;86.21;99759.53;10268792;28;20061;-62
2021/09/15 11:26:59;;;;;;;;;;;;;;;22.17;84.10;99760.56;10253869;28;20004;-60
2021/09/15 11:32:00;;;;;;;6.53;4.15;;;;;;;22.24;84.39;99762.22;10262369;28;20021;-60
2021/09/15 11:37:02;;;;;;;4.95;4.45;;;;;;;22.45;83.01;99764.91;10276119;28;20165;-61
2021/09/15 11:42:04;;;;;;;5.72;5.13;;;;;;;22.43;84.06;99770.56;10270816;28;20137;-61
2021/09/15 11:47:05;;;;;;;5.05;4.65;;;;;;;22.47;83.46;99766.34;10288588;28;20132;-60
2021/09/15 11:52:08;;;;;;;5.68;3.63;;;;;;;22.59;83.14;99759.25;10292919;28;22482;-61
2021/09/15 11:57:10;;;;;;;6.20;4.00;;;;;;;23.03;81.14;99756.72;10293437;28;20058;-61
2021/09/15 12:02:14;;;;;;;4.53;3.47;;;;;;;22.90;81.05;99760.34;10292059;28;20547;-61
2021/09/15 12:07:17;;;;;;;3.70;3.38;;;;;;;22.64;81.63;99750.44;10289162;28;20062;-61
2021/09/15 12:12:18;;;;;;;4.50;4.10;;;;;;;22.26;83.96;99743.03;10291751;28;20046;-61
2021/09/15 12:17:20;;;;;;;3.78;3.40;;;;;;;22.27;84.64;99750.13;10292967;28;20069;-61
2021/09/15 12:22:29;;;;;;;5.78;4.13;;;;;;;22.40;83.46;99744.69;10292616;28;20054;-61
2021/09/15 12:27:31;;;;;;;4.18;3.22;;;;;;;22.47;83.20;99741.94;10291341;28;20153;-61
2021/09/15 12:32:39;;;;;;;4.90;4.40;;;;;;;22.50;82.82;99724.41;10292388;28;20532;-61
2021/09/15 12:37:40;;;;;;;4.10;3.80;;;;;;;22.46;83.28;99726.75;10291690;28;20541;-61
2021/09/15 12:42:42;;;;;;;6.25;4.55;;;;;;;22.26;84.74;99721.34;10283252;28;20081;-61
2021/09/15 12:47:46;;;;;;;4.63;4.20;;;;;;;22.19;85.92;99726.78;10285755;28;20136;-61
2021/09/15 12:53:08;;;;;;;5.47;4.90;;;;;;;22.35;85.81;99719.25;10284558;28;20128;-61
2021/09/15 12:58:11;;;;;;;5.32;4.82;;;;;;;22.42;86.03;99715.47;10275816;28;20070;-62
2021/09/15 13:03:13;;;;;;;5.15;4.55;;;;;;;22.19;85.69;99710.53;10270984;28;20801;-61
2021/09/15 13:08:26;;;;;;;5.00;4.53;;;;;;;22.20;86.50;99708.63;10254004;28;20536;-61
2021/09/15 13:13:29;;;;;;;5.35;4.90;;;;;;;22.19;86.56;99699.69;10244229;28;20042;-61
2021/09/15 13:18:31;;;;;;;5.37;4.80;;;;;;;22.24;85.85;99702.56;10260109;28;20066;-60
2021/09/15 13:23:32;;;;;;;4.22;3.67;;;;;;;22.19;85.85;99694.25;10242652;28;20090;-61
2021/09/15 13:28:35;;;;;;;5.22;4.68;;;;;;;22.34;85.62;99690.47;10244441;28;20077;-61
2021/09/15 13:33:36;;;;;;;5.15;4.65;;;;;;;22.23;86.10;99684.66;10252262;28;20078;-62
2021/09/15 13:38:37;;;;;;;4.47;4.15;;;;;;;22.05;87.32;99687.19;10277672;28;20149;-62
2021/09/15 13:43:39;;;;;;;4.25;3.85;;;;;;;22.11;87.28;99672.78;10283618;28;20046;-61
2021/09/15 13:48:40;;;;;;;4.70;3.80;;;;;;;22.83;84.47;99680.84;10283831;28;20073;-61
2021/09/15 13:53:42;;;;;;;4.53;4.13;;;;;;;23.39;80.48;99676.53;10252532;28;20055;-61
2021/09/15 13:58:43;;;;;;;5.78;4.93;;;;;;;23.70;80.11;99671.25;10279443;28;20137;-62
2021/09/15 14:03:45;;;;;;;5.80;4.07;;;;;;;23.86;79.26;99669.88;10241688;28;20075;-62
2021/09/15 14:08:46;;;;;;;5.15;3.10;;;;;;;23.58;78.71;99650.22;10239358;28;20198;-62
2021/09/15 14:13:47;;;;;;;3.00;2.60;;;;;;;23.64;78.91;99662.09;10243482;28;20549;-61
2021/09/15 14:18:49;;;;;;;3.22;2.92;;;;;;;23.40;79.21;99663.78;10242101;28;20149;-61
2021/09/15 14:23:50;;;;;;;3.47;2.50;;;;;;;23.30;80.06;99667.00;10239738;28;20209;-60
2021/09/15 14:28:52;;;;;;;2.53;2.22;;;;;;;23.25;79.45;99664.94;10255076;28;20137;-65
2021/09/15 14:33:54;;;;;;;5.25;2.53;;;;;;;23.25;78.90;99650.53;10282414;28;20058;-61
2021/09/15 14:38:55;;;;;;;3.40;2.72;;;;;;;23.15;78.86;99636.63;10264254;28;20145;-62
2021/09/15 14:43:59;;;;;;;2.75;2.45;;;;;;;23.12;79.96;99646.06;10272759;28;20586;-62
2021/09/15 14:49:00;;;;;;;3.65;2.30;;;;;;;23.12;78.82;99644.16;10239696;28;20054;-62
2021/09/15 14:54:02;;;;;;;3.55;2.47;;;;;;;22.99;79.38;99648.84;10241778;28;20124;-61
2021/09/15 14:59:03;;;;;;;3.92;2.00;;;;;;;22.87;79.90;99646.81;10244337;28;20050;-61
2021/09/15 15:04:06;;;;;;;3.67;2.15;;;;;;;22.84;78.86;99641.81;10249408;28;20054;-60
2021/09/15 15:09:08;;;;;;;3.08;2.50;;;;;;;22.79;79.49;99652.50;10264752;28;20140;-61
2021/09/15 15:14:09;;;;;;;3.35;2.35;;;;;;;22.78;79.00;99645.41;10278282;28;20097;-62
2021/09/15 15:19:11;;;;;;;5.70;2.63;;;;;;;22.81;78.81;99644.16;10279603;28;20287;-61
2021/09/15 15:24:12;;;;;;;5.05;2.22;;;;;;;22.76;78.03;99642.91;10266568;28;20116;-59
2021/09/15 15:29:14;;;;;;;3.35;2.10;;;;;;;22.74;78.95;99653.16;10274798;28;20094;-60
2021/09/15 15:34:16;;;;;;;8.18;2.90;;;;;;;22.68;77.64;99642.34;10277692;28;20757;-62
2021/09/15 15:39:17;;;;;;;4.88;2.42;;;;;;;22.74;78.00;99652.31;10279827;28;20066;-63
2021/09/15 15:44:19;;;;;;;3.03;2.40;;;;;;;22.73;78.27;99656.09;10272099;28;20133;-64
2021/09/15 15:49:20;;;;;;;4.20;2.22;;;;;;;;;;10237324;28;20137;-60
2021/09/15 15:54:22;;;;;;;4.43;2.15;;;;;;;22.75;77.43;99657.53;10251333;28;20145;-60
2021/09/15 15:59:23;;;;;;;3.45;2.65;;;;;;;22.46;78.45;99664.38;10271698;28;20140;-63
2021/09/15 16:04:25;;;;;;;7.07;2.83;;;;;;;22.48;78.75;99669.59;10278866;28;20064;-61
2021/09/15 16:09:26;;;;;;;5.00;2.80;;;;;;;22.48;78.61;99673.13;10278205;28;20116;-62
2021/09/15 16:14:28;;;;;;;5.35;2.67;;;;;;;22.36;78.98;99672.13;10274630;28;20125;-60
2021/09/15 16:19:29;;;;;;;4.00;2.50;;;;;;;22.23;79.63;99687.38;10254800;28;20112;-60
2021/09/15 16:24:31;;;;;;;4.78;2.95;;;;;;;22.10;80.78;99679.28;10254464;28;20138;-60
2021/09/15 16:29:33;;;;;;;4.05;2.97;;;;;;;22.03;83.63;99689.31;10265840;28;20122;-60
2021/09/15 16:34:34;;;;;;;6.80;4.35;;;;;;;21.79;88.23;99688.09;10257245;28;20209;-61
2021/09/15 16:39:36;;;;;;;6.80;3.22;;;;;;;21.70;87.94;99687.50;10240147;28;20460;-62
2021/09/15 16:44:37;;;;;;;4.53;2.67;;;;;;;21.65;89.73;99687.31;10238122;28;20174;-64
2021/09/15 16:49:39;;;;;;;6.72;3.35;;;;;;;21.73;91.39;99688.94;10243803;28;20129;-63
2021/09/15 16:54:41;;;;;;;6.25;3.80;;;;;;;21.71;90.48;99683.75;10247865;28;20551;-63
2021/09/15 16:59:42;;;;;;;4.35;3.40;;;;;;;21.70;92.71;99682.91;10281040;28;20124;-62
2021/09/15 17:04:44;;;;;;;6.05;3.45;;;;;;;21.68;91.28;99687.69;10254789;28;20636;-64
2021/09/15 17:09:45;;;;;;;5.15;3.65;;;;;;;21.63;92.28;99690.22;10271644;28;20261;-63
2021/09/15 17:14:47;;;;;;;5.68;4.18;;;;;;;21.53;93.79;99690.63;10251523;28;20070;-63
2021/09/15 17:19:48;;;;;;;5.25;3.33;;;;;;;21.37;94.21;99693.72;10282371;28;20078;-60
2021/09/15 17:24:50;;;;;;;4.90;3.17;;;;;;;21.53;93.83;99695.22;10264799;28;20508;-63
2021/09/15 17:29:52;;;;;;;4.55;3.60;;;;;;;21.49;89.76;99702.06;10251388;28;20136;-64
2021/09/15 17:34:53;;;;;;;4.65;4.13;;;;;;;21.45;91.30;99688.13;10257317;28;20055;-62
2021/09/15 17:39:55;;;;;;;5.40;4.30;;;;;;;21.41;92.69;99699.53;10247246;28;20816;-60
2021/09/15 17:44:56;;;;;;;5.72;3.90;;;;;;;21.28;93.26;99703.09;10278743;28;21484;-63
2021/09/15 17:49:58;;;;;;;5.88;3.90;;;;;;;21.28;94.59;99689.56;10279412;28;20120;-60
2021/09/15 17:54:59;;;;;;;5.80;3.65;;;;;;;21.41;94.49;99707.66;10280932;28;20157;-61
2021/09/15 18:00:01;;;;;;;7.20;4.78;;;;;;;21.42;93.75;99704.75;10282007;28;20145;-60
2021/09/15 18:05:03;;;;;;;4.65;3.90;;;;;;;21.42;94.40;99710.16;10280350;28;20561;-62
2021/09/15 18:10:05;;;;;;;6.90;4.68;;;;;;;21.30;94.01;99701.00;10280480;28;20193;-60
2021/09/15 18:15:07;;;;;;;5.43;3.78;;;;;;;21.31;92.54;99705.38;10281209;28;20113;-60
2021/09/15 18:20:09;;;;;;;6.18;3.78;;;;;;;21.19;93.32;99711.38;10277459;28;20949;-61
2021/09/15 18:25:11;;;;;;;5.97;4.25;;;;;;;21.10;94.42;99718.03;10271865;28;20361;-64
2021/09/15 18:30:12;;;;;;;5.93;4.57;;;;;;;21.04;95.35;99724.28;10277841;28;20050;-62
2021/09/15 18:35:14;;;;;;;7.50;5.10;;;;;;;20.93;96.06;99725.72;10281169;28;20080;-64
2021/09/15 18:40:15;;;;;;;5.63;4.20;;;;;;;21.00;96.28;99723.00;10279266;28;20089;-55
2021/09/15 18:45:17;;;;;;;7.82;5.25;;;;;;;21.07;95.72;99721.16;10278967;28;20183;-62
2021/09/15 18:50:18;;;;;;;5.97;5.07;;;;;;;21.12;96.19;99732.22;10276542;28;20090;-57
2021/09/15 18:55:20;;;;;;;7.75;5.00;;;;;;;21.14;95.10;99746.38;10273616;28;20101;-54
2021/09/15 19:00:22;;;;;;;5.63;4.57;;;;;;;21.14;95.86;99750.97;10276802;28;20132;-56
2021/09/15 19:05:23;;;;;;;5.93;4.63;;;;;;;21.12;95.08;99751.16;10274850;28;20057;-55
2021/09/15 19:10:25;;;;;;;6.32;5.55;;;;;;;21.19;96.75;99759.28;10275941;28;20069;-55
2021/09/15 19:15:27;;;;;;;6.93;6.25;;;;;;;21.14;95.83;99757.19;10279371;28;20161;-54
2021/09/15 19:20:29;;;;;;;8.05;5.30;;;;;;;21.15;95.77;99764.28;10279721;28;20599;-54
2021/09/15 19:25:30;;;;;;;5.85;5.28;;;;;;;21.22;95.87;99766.16;10274364;28;20086;-54
2021/09/15 19:30:32;;;;;;;8.20;5.80;;;;;;;21.27;97.21;99769.94;10275561;28;20133;-54
2021/09/15 19:35:33;;;;;;;5.00;4.53;;;;;;;21.25;95.59;99766.56;10277116;28;20529;-54
2021/09/15 19:40:34;;;;;;;7.32;4.55;;;;;;;21.24;94.12;99774.91;10279535;28;20181;-54
2021/09/15 19:45:36;;;;;;;7.88;5.68;;;;;;;21.23;95.64;99776.78;10280210;28;20058;-55
2021/09/15 19:50:37;;;;;;;4.97;4.22;;;;;;;21.29;94.09;99780.56;10256841;28;20255;-57
2021/09/15 19:55:39;;;;;;;5.82;5.30;;;;;;;21.21;94.32;99789.66;10260546;28;20161;-53
2021/09/15 20:00:41;;;;;;;8.35;5.38;;;;;;;21.14;95.69;99786.13;10264189;28;20173;-54
2021/09/15 20:05:42;;;;;;;5.90;5.40;;;;;;;21.10;95.99;99783.00;10248851;28;20097;-51
2021/09/15 20:10:44;;;;;;;8.10;5.95;;;;;;;21.06;96.32;99787.13;10244420;28;21800;-55
2021/09/15 20:15:45;;;;;;;6.53;5.05;;;;;;;21.09;97.29;99794.88;10246377;28;20564;-55
2021/09/15 20:20:46;;;;;;;7.15;5.30;;;;;;;21.17;96.99;99793.84;10242902;28;20047;-53
2021/09/15 20:25:49;;;;;;;7.80;5.07;;;;;;;21.16;96.29;99803.81;10260178;28;20190;-54
2021/09/15 20:30:50;;;;;;;5.45;4.43;;;;;;;21.21;96.11;99805.09;10249457;28;20070;-53
2021/09/15 20:35:52;;;;;;;7.00;5.35;;;;;;;21.15;95.91;99810.28;10268813;28;20101;-52
2021/09/15 20:40:54;;;;;;;6.55;5.03;;;;;;;21.04;96.46;99805.44;10267082;28;20437;-55
2021/09/15 20:45:55;;;;;;;7.20;5.25;;;;;;;21.02;96.66;99812.94;10284307;28;20078;-55
2021/09/15 20:50:57;;;;;;;6.10;4.38;;;;;;;21.05;97.62;99817.94;10255822;28;20664;-53
2021/09/15 20:55:58;;;;;;;5.72;4.88;;;;;;;21.12;96.75;99818.81;10255742;28;20136;-56
2021/09/15 21:01:00;;;;;;;7.75;6.03;;;;;;;21.16;96.28;99821.94;10261080;28;20114;-52
2021/09/15 21:06:02;;;;;;;8.38;5.57;;;;;;;21.17;96.36;99813.63;10255922;28;20065;-55
2021/09/15 21:11:03;;;;;;;7.05;5.28;;;;;;;21.22;95.81;99817.59;10264035;28;20205;-60
2021/09/15 21:16:04;;;;;;;7.10;4.63;;;;;;;21.10;96.24;99814.63;10244718;28;20101;-63
2021/09/15 21:21:06;;;;;;;5.32;4.82;;;;;;;20.95;96.57;99812.09;10251817;28;20072;-61
2021/09/15 21:26:07;;;;;;;9.55;5.78;;;;;;;20.92;96.65;99823.31;10281184;28;20136;-63
2021/09/15 21:31:09;;;;;;;5.60;5.07;;;;;;;20.91;97.15;99816.22;10288240;28;20082;-63
2021/09/15 21:36:11;;;;;;;5.13;4.57;;;;;;;20.93;97.47;99833.09;10288085;28;20077;-63
2021/09/15 21:41:12;;;;;;;5.40;4.88;;;;;;;21.01;97.99;99835.63;10295225;28;20104;-62
2021/09/15 21:46:14;;;;;;;6.65;5.93;;;;;;;20.99;96.61;99824.19;10288534;28;20125;-62
2021/09/15 21:51:19;;;;;;;7.22;6.57;;;;;;;21.00;95.47;99839.34;10293031;28;20093;-60
2021/09/15 21:56:21;;;;;;;15.13;13.50;;;;;;;20.91;93.77;99838.72;10299475;28;20050;-64
2021/09/15 22:01:22;;;;;;;18.17;16.45;;;;;;;20.75;91.96;99842.59;10306971;28;20058;-64
2021/09/15 22:06:24;;;;;;;18.92;17.10;;;;;;;20.73;93.20;99836.56;10287105;28;20061;-60
2021/09/15 22:11:25;;;;;;;20.98;18.85;;;;;;;20.62;92.60;99834.38;10289467;28;20197;-60
2021/09/15 22:16:27;;;;;;;21.40;19.30;;;;;;;20.38;93.09;99849.19;10286485;28;20140;-59
2021/09/15 22:21:28;;;;;;;23.55;21.25;;;;;;;20.54;92.16;99853.47;10288027;28;20074;-62
2021/09/15 22:26:29;;;;;;;21.60;18.92;;;;;;;20.54;91.37;99853.47;10288051;28;20156;-63
2021/09/15 22:31:33;;;;;;;22.13;18.67;;;;;;;20.50;91.34;99853.00;10289690;28;20397;-63
2021/09/15 22:36:34;;;;;;;;;;;;;;;20.26;87.68;99862.41;10288852;28;20177;-63
2021/09/15 22:41:36;;;;;;;14.43;13.02;;;;;;;20.22;87.32;99864.69;10294752;28;19991;-61
2021/09/15 22:46:38;;;;;;;12.68;11.48;;;;;;;20.27;87.33;99864.91;10293869;28;20046;-63
2021/09/15 22:51:39;;;;;;;11.90;10.70;;;;;;;20.23;86.57;99868.22;10291525;28;20108;-63
2021/09/15 22:56:41;;;;;;;12.75;11.45;;;;;;;20.20;87.53;99855.91;10292949;28;20129;-58
2021/09/15 23:01:43;;;;;;;14.00;12.60;;;;;;;20.16;86.66;99864.63;10292683;28;20073;-63
2021/09/15 23:06:44;;;;;;;14.93;12.68;;;;;;;20.09;86.57;99865.41;10291004;28;20220;-61
2021/09/15 23:11:46;;;;;;;16.13;13.52;;;;;;;20.14;87.23;99876.44;10293271;28;20046;-60
2021/09/15 23:17:07;;;;;;;14.32;12.98;;;;;;;20.18;89.14;99881.47;10290422;28;20049;-63
2021/09/15 23:22:08;;;;;;;17.67;14.50;;;;;;;20.19;88.83;99883.13;10290868;28;20149;-62
2021/09/15 23:27:10;;;;;;;15.20;13.60;;;;;;;20.13;89.49;99896.41;10292906;28;20677;-61
2021/09/15 23:32:14;;;;;;;14.70;13.35;;;;;;;20.11;89.26;99893.03;10291915;28;20108;-59